sensor_id;sensor_type;location;lat;lon;timestamp;pressure;altitude;pressure_sealevel;temperature;humidity
82668;BME280;72691;51.374;-0.176;2024-03-17T00:00:42;101578.95;;;7.26;76.97
82668;BME280;72691;51.374;-0.176;2024-03-17T00:03:07;101583.84;;;7.52;76.71
82668;BME280;72691;51.374;-0.176;2024-03-17T00:05:33;101581.14;;;7.51;76.86
82668;BME280;72691;51.374;-0.176;2024-03-17T00:07:58;101572.48;;;7.88;73.80
82668;BME280;72691;51.374;-0.176;2024-03-17T00:10:23;101564.78;;;8.88;71.36
82668;BME280;72691;51.374;-0.176;2024-03-17T00:12:49;101560.96;;;8.41;71.83
82668;BME280;72691;51.374;-0.176;2024-03-17T00:15:14;101560.27;;;7.77;74.18
82668;BME280;72691;51.374;-0.176;2024-03-17T00:17:40;101554.36;;;9.16;70.46
82668;BME280;72691;51.374;-0.176;2024-03-17T00:20:06;101550.98;;;8.69;71.21
82668;BME280;72691;51.374;-0.176;2024-03-17T00:22:30;101543.77;;;8.54;69.70
82668;BME280;72691;51.374;-0.176;2024-03-17T00:24:56;101538.95;;;8.62;72.02
82668;BME280;72691;51.374;-0.176;2024-03-17T00:27:22;101536.37;;;8.58;71.66
82668;BME280;72691;51.374;-0.176;2024-03-17T00:29:46;101537.30;;;7.75;74.24
82668;BME280;72691;51.374;-0.176;2024-03-17T00:32:12;101535.53;;;7.79;74.60
82668;BME280;72691;51.374;-0.176;2024-03-17T00:34:37;101532.97;;;8.05;73.35
82668;BME280;72691;51.374;-0.176;2024-03-17T00:37:03;101529.27;;;7.92;74.77
82668;BME280;72691;51.374;-0.176;2024-03-17T00:39:27;101525.17;;;8.11;72.96
82668;BME280;72691;51.374;-0.176;2024-03-17T00:41:53;101518.89;;;8.45;71.22
82668;BME280;72691;51.374;-0.176;2024-03-17T00:44:18;101514.00;;;8.36;71.79
82668;BME280;72691;51.374;-0.176;2024-03-17T00:46:44;101513.13;;;7.97;72.96
82668;BME280;72691;51.374;-0.176;2024-03-17T00:49:09;101508.90;;;8.76;71.92
82668;BME280;72691;51.374;-0.176;2024-03-17T00:51:35;101508.77;;;8.90;70.59
82668;BME280;72691;51.374;-0.176;2024-03-17T00:54:00;101511.17;;;9.29;70.82
82668;BME280;72691;51.374;-0.176;2024-03-17T00:56:25;101515.73;;;8.57;73.05
82668;BME280;72691;51.374;-0.176;2024-03-17T00:58:51;101522.42;;;8.93;71.69
82668;BME280;72691;51.374;-0.176;2024-03-17T01:01:16;101519.77;;;8.30;72.43
82668;BME280;72691;51.374;-0.176;2024-03-17T01:03:41;101517.84;;;8.35;73.46
82668;BME280;72691;51.374;-0.176;2024-03-17T01:06:07;101515.32;;;8.46;74.31
82668;BME280;72691;51.374;-0.176;2024-03-17T01:08:33;101509.74;;;9.41;70.01
82668;BME280;72691;51.374;-0.176;2024-03-17T01:10:58;101503.06;;;9.06;70.75
82668;BME280;72691;51.374;-0.176;2024-03-17T01:13:23;101508.82;;;7.71;75.02
82668;BME280;72691;51.374;-0.176;2024-03-17T01:15:51;101508.16;;;7.98;76.33
82668;BME280;72691;51.374;-0.176;2024-03-17T01:18:14;101498.77;;;7.58;76.78
82668;BME280;72691;51.374;-0.176;2024-03-17T01:20:39;101487.01;;;8.70;74.33
82668;BME280;72691;51.374;-0.176;2024-03-17T01:23:05;101486.65;;;8.39;74.69
82668;BME280;72691;51.374;-0.176;2024-03-17T01:25:30;101488.77;;;8.49;74.46
82668;BME280;72691;51.374;-0.176;2024-03-17T01:27:56;101490.27;;;8.35;74.87
82668;BME280;72691;51.374;-0.176;2024-03-17T01:30:22;101482.23;;;8.30;74.90
82668;BME280;72691;51.374;-0.176;2024-03-17T01:32:47;101469.50;;;9.40;71.70
82668;BME280;72691;51.374;-0.176;2024-03-17T01:35:12;101456.32;;;9.60;70.30
82668;BME280;72691;51.374;-0.176;2024-03-17T01:37:37;101450.01;;;10.10;68.98
82668;BME280;72691;51.374;-0.176;2024-03-17T01:40:02;101448.86;;;9.81;68.78
82668;BME280;72691;51.374;-0.176;2024-03-17T01:42:27;101456.22;;;9.57;69.33
82668;BME280;72691;51.374;-0.176;2024-03-17T01:44:53;101455.14;;;10.44;67.12
82668;BME280;72691;51.374;-0.176;2024-03-17T01:47:19;101451.09;;;10.50;66.24
82668;BME280;72691;51.374;-0.176;2024-03-17T01:49:44;101447.10;;;10.49;66.49
82668;BME280;72691;51.374;-0.176;2024-03-17T01:52:09;101446.97;;;11.21;65.21
82668;BME280;72691;51.374;-0.176;2024-03-17T01:54:35;101449.87;;;10.33;66.06
82668;BME280;72691;51.374;-0.176;2024-03-17T01:57:00;101442.27;;;10.33;66.87
82668;BME280;72691;51.374;-0.176;2024-03-17T01:59:26;101437.83;;;10.28;67.00
82668;BME280;72691;51.374;-0.176;2024-03-17T02:01:51;101435.43;;;9.96;67.81
82668;BME280;72691;51.374;-0.176;2024-03-17T02:04:16;101436.37;;;10.33;67.52
82668;BME280;72691;51.374;-0.176;2024-03-17T02:06:41;101435.93;;;10.97;65.60
82668;BME280;72691;51.374;-0.176;2024-03-17T02:09:07;101431.52;;;10.25;66.78
82668;BME280;72691;51.374;-0.176;2024-03-17T02:11:33;101428.26;;;9.80;69.34
82668;BME280;72691;51.374;-0.176;2024-03-17T02:13:58;101425.57;;;9.94;70.04
82668;BME280;72691;51.374;-0.176;2024-03-17T02:16:24;101428.72;;;8.80;72.22
82668;BME280;72691;51.374;-0.176;2024-03-17T02:18:48;101422.96;;;10.43;68.84
82668;BME280;72691;51.374;-0.176;2024-03-17T02:21:14;101411.87;;;10.74;68.18
82668;BME280;72691;51.374;-0.176;2024-03-17T02:23:40;101406.11;;;11.07;66.33
82668;BME280;72691;51.374;-0.176;2024-03-17T02:26:05;101407.65;;;10.87;66.96
82668;BME280;72691;51.374;-0.176;2024-03-17T02:28:39;101407.12;;;10.48;67.34
82668;BME280;72691;51.374;-0.176;2024-03-17T02:30:56;101405.48;;;10.16;68.68
82668;BME280;72691;51.374;-0.176;2024-03-17T02:33:21;101399.40;;;9.73;71.85
82668;BME280;72691;51.374;-0.176;2024-03-17T02:35:47;101390.27;;;10.09;70.53
82668;BME280;72691;51.374;-0.176;2024-03-17T02:38:15;101392.54;;;10.33;69.95
82668;BME280;72691;51.374;-0.176;2024-03-17T02:40:38;101395.52;;;8.91;73.67
82668;BME280;72691;51.374;-0.176;2024-03-17T02:43:03;101387.84;;;10.72;70.94
82668;BME280;72691;51.374;-0.176;2024-03-17T02:45:28;101378.26;;;9.90;70.13
82668;BME280;72691;51.374;-0.176;2024-03-17T02:47:53;101375.05;;;9.72;72.55
82668;BME280;72691;51.374;-0.176;2024-03-17T02:50:19;101379.33;;;10.22;72.29
82668;BME280;72691;51.374;-0.176;2024-03-17T02:52:44;101378.19;;;10.28;71.90
82668;BME280;72691;51.374;-0.176;2024-03-17T02:55:09;101377.35;;;11.15;69.07
82668;BME280;72691;51.374;-0.176;2024-03-17T02:57:35;101375.12;;;10.13;72.40
82668;BME280;72691;51.374;-0.176;2024-03-17T03:00:01;101376.96;;;9.66;74.73
82668;BME280;72691;51.374;-0.176;2024-03-17T03:02:26;101373.74;;;10.36;72.39
82668;BME280;72691;51.374;-0.176;2024-03-17T03:04:51;101371.93;;;9.56;76.53
82668;BME280;72691;51.374;-0.176;2024-03-17T03:07:17;101368.27;;;9.82;74.51
82668;BME280;72691;51.374;-0.176;2024-03-17T03:09:42;101375.12;;;9.36;76.46
82668;BME280;72691;51.374;-0.176;2024-03-17T03:12:07;101374.70;;;9.26;76.13
82668;BME280;72691;51.374;-0.176;2024-03-17T03:14:33;101367.83;;;8.93;78.71
82668;BME280;72691;51.374;-0.176;2024-03-17T03:16:58;101363.68;;;8.97;78.92
82668;BME280;72691;51.374;-0.176;2024-03-17T03:19:24;101358.88;;;9.45;77.04
82668;BME280;72691;51.374;-0.176;2024-03-17T03:21:49;101364.68;;;9.18;78.71
82668;BME280;72691;51.374;-0.176;2024-03-17T03:24:15;101364.27;;;8.52;79.42
82668;BME280;72691;51.374;-0.176;2024-03-17T03:26:40;101360.28;;;9.29;76.72
82668;BME280;72691;51.374;-0.176;2024-03-17T03:29:06;101355.46;;;9.48;77.00
82668;BME280;72691;51.374;-0.176;2024-03-17T03:31:31;101352.67;;;9.41;77.27
82668;BME280;72691;51.374;-0.176;2024-03-17T03:33:56;101350.72;;;10.53;73.97
82668;BME280;72691;51.374;-0.176;2024-03-17T03:36:21;101349.86;;;10.03;75.54
82668;BME280;72691;51.374;-0.176;2024-03-17T03:38:46;101351.98;;;9.03;76.89
82668;BME280;72691;51.374;-0.176;2024-03-17T03:41:14;101349.44;;;9.22;76.01
82668;BME280;72691;51.374;-0.176;2024-03-17T03:43:38;101350.14;;;9.49;77.81
82668;BME280;72691;51.374;-0.176;2024-03-17T03:46:04;101342.85;;;9.27;77.20
82668;BME280;72691;51.374;-0.176;2024-03-17T03:48:29;101338.07;;;9.91;74.72
82668;BME280;72691;51.374;-0.176;2024-03-17T03:50:54;101332.75;;;10.01;75.26
82668;BME280;72691;51.374;-0.176;2024-03-17T03:53:20;101331.97;;;10.49;72.55
82668;BME280;72691;51.374;-0.176;2024-03-17T03:55:46;101330.95;;;9.96;74.28
82668;BME280;72691;51.374;-0.176;2024-03-17T03:58:12;101329.00;;;10.15;74.94
82668;BME280;72691;51.374;-0.176;2024-03-17T04:00:37;101324.60;;;9.69;75.52
82668;BME280;72691;51.374;-0.176;2024-03-17T04:03:03;101320.66;;;10.19;74.68
82668;BME280;72691;51.374;-0.176;2024-03-17T04:05:28;101316.50;;;10.21;75.15
82668;BME280;72691;51.374;-0.176;2024-03-17T04:07:53;101317.40;;;9.26;76.09
82668;BME280;72691;51.374;-0.176;2024-03-17T04:10:18;101312.89;;;10.01;74.78
82668;BME280;72691;51.374;-0.176;2024-03-17T04:12:44;101308.74;;;9.53;76.20
82668;BME280;72691;51.374;-0.176;2024-03-17T04:15:09;101305.15;;;9.49;77.73
82668;BME280;72691;51.374;-0.176;2024-03-17T04:17:35;101300.80;;;9.71;75.69
82668;BME280;72691;51.374;-0.176;2024-03-17T04:20:00;101302.06;;;9.88;75.99
82668;BME280;72691;51.374;-0.176;2024-03-17T04:22:26;101304.62;;;9.50;75.68
82668;BME280;72691;51.374;-0.176;2024-03-17T04:24:52;101301.04;;;9.20;76.84
82668;BME280;72691;51.374;-0.176;2024-03-17T04:27:17;101305.07;;;9.96;75.01
82668;BME280;72691;51.374;-0.176;2024-03-17T04:29:43;101301.20;;;9.40;77.09
82668;BME280;72691;51.374;-0.176;2024-03-17T04:32:08;101292.49;;;10.09;75.90
82668;BME280;72691;51.374;-0.176;2024-03-17T04:34:33;101293.24;;;10.42;74.08
82668;BME280;72691;51.374;-0.176;2024-03-17T04:36:59;101290.56;;;10.86;72.25
82668;BME280;72691;51.374;-0.176;2024-03-17T04:39:25;101290.34;;;10.54;73.57
82668;BME280;72691;51.374;-0.176;2024-03-17T04:41:50;101286.46;;;9.10;77.22
82668;BME280;72691;51.374;-0.176;2024-03-17T04:44:16;101282.85;;;9.15;77.83
82668;BME280;72691;51.374;-0.176;2024-03-17T04:46:42;101280.22;;;9.98;75.17
82668;BME280;72691;51.374;-0.176;2024-03-17T04:49:06;101281.97;;;8.99;79.13
82668;BME280;72691;51.374;-0.176;2024-03-17T04:51:31;101280.52;;;9.85;77.01
82668;BME280;72691;51.374;-0.176;2024-03-17T04:53:57;101283.77;;;9.48;77.32
82668;BME280;72691;51.374;-0.176;2024-03-17T04:56:23;101285.01;;;9.11;78.28
82668;BME280;72691;51.374;-0.176;2024-03-17T04:58:48;101282.26;;;9.92;76.08
82668;BME280;72691;51.374;-0.176;2024-03-17T05:01:13;101281.68;;;9.99;75.11
82668;BME280;72691;51.374;-0.176;2024-03-17T05:03:39;101283.50;;;9.54;76.70
82668;BME280;72691;51.374;-0.176;2024-03-17T05:06:05;101281.93;;;9.68;76.54
82668;BME280;72691;51.374;-0.176;2024-03-17T05:08:31;101278.33;;;9.46;76.04
82668;BME280;72691;51.374;-0.176;2024-03-17T05:10:57;101279.95;;;9.83;75.29
82668;BME280;72691;51.374;-0.176;2024-03-17T05:13:22;101278.18;;;9.95;75.06
82668;BME280;72691;51.374;-0.176;2024-03-17T05:15:47;101280.13;;;9.88;75.12
82668;BME280;72691;51.374;-0.176;2024-03-17T05:18:13;101274.99;;;9.78;75.09
82668;BME280;72691;51.374;-0.176;2024-03-17T05:20:39;101275.37;;;9.89;74.82
82668;BME280;72691;51.374;-0.176;2024-03-17T05:23:04;101272.68;;;10.18;72.74
82668;BME280;72691;51.374;-0.176;2024-03-17T05:25:29;101267.50;;;9.82;74.18
82668;BME280;72691;51.374;-0.176;2024-03-17T05:27:55;101269.53;;;9.28;77.70
82668;BME280;72691;51.374;-0.176;2024-03-17T05:30:20;101269.60;;;9.79;75.71
82668;BME280;72691;51.374;-0.176;2024-03-17T05:32:45;101271.64;;;10.10;73.63
82668;BME280;72691;51.374;-0.176;2024-03-17T05:35:11;101271.85;;;10.93;71.91
82668;BME280;72691;51.374;-0.176;2024-03-17T05:37:36;101273.94;;;10.17;72.61
82668;BME280;72691;51.374;-0.176;2024-03-17T05:40:01;101275.25;;;10.71;70.95
82668;BME280;72691;51.374;-0.176;2024-03-17T05:42:26;101279.37;;;9.90;74.04
82668;BME280;72691;51.374;-0.176;2024-03-17T05:44:52;101279.78;;;10.87;71.76
82668;BME280;72691;51.374;-0.176;2024-03-17T05:47:17;101281.35;;;9.53;76.33
82668;BME280;72691;51.374;-0.176;2024-03-17T05:49:43;101278.33;;;9.41;76.92
82668;BME280;72691;51.374;-0.176;2024-03-17T05:52:08;101278.86;;;8.89;80.00
82668;BME280;72691;51.374;-0.176;2024-03-17T05:54:33;101272.49;;;9.09;78.15
82668;BME280;72691;51.374;-0.176;2024-03-17T05:56:58;101271.22;;;9.45;76.41
82668;BME280;72691;51.374;-0.176;2024-03-17T05:59:24;101271.27;;;9.40;77.50
82668;BME280;72691;51.374;-0.176;2024-03-17T06:01:50;101272.23;;;9.81;75.10
82668;BME280;72691;51.374;-0.176;2024-03-17T06:04:15;101272.83;;;10.24;74.14
82668;BME280;72691;51.374;-0.176;2024-03-17T06:06:41;101275.82;;;10.73;72.66
82668;BME280;72691;51.374;-0.176;2024-03-17T06:09:07;101274.73;;;10.74;71.03
82668;BME280;72691;51.374;-0.176;2024-03-17T06:11:32;101270.45;;;10.07;74.53
82668;BME280;72691;51.374;-0.176;2024-03-17T06:13:57;101266.90;;;10.63;73.52
82668;BME280;72691;51.374;-0.176;2024-03-17T06:16:22;101264.97;;;9.89;74.56
82668;BME280;72691;51.374;-0.176;2024-03-17T06:18:47;101267.35;;;9.93;76.17
82668;BME280;72691;51.374;-0.176;2024-03-17T06:21:13;101265.30;;;9.90;76.62
82668;BME280;72691;51.374;-0.176;2024-03-17T06:23:38;101270.85;;;9.92;75.36
82668;BME280;72691;51.374;-0.176;2024-03-17T06:26:04;101268.79;;;10.39;73.27
82668;BME280;72691;51.374;-0.176;2024-03-17T06:28:30;101268.17;;;10.02;74.41
82668;BME280;72691;51.374;-0.176;2024-03-17T06:30:56;101269.32;;;9.71;76.05
82668;BME280;72691;51.374;-0.176;2024-03-17T06:33:20;101269.97;;;9.33;77.96
82668;BME280;72691;51.374;-0.176;2024-03-17T06:35:46;101265.60;;;10.31;75.66
82668;BME280;72691;51.374;-0.176;2024-03-17T06:38:11;101265.20;;;10.51;72.99
82668;BME280;72691;51.374;-0.176;2024-03-17T06:40:36;101258.52;;;11.07;70.82
82668;BME280;72691;51.374;-0.176;2024-03-17T06:43:01;101258.57;;;10.77;71.20
82668;BME280;72691;51.374;-0.176;2024-03-17T06:45:26;101254.36;;;10.80;71.14
82668;BME280;72691;51.374;-0.176;2024-03-17T06:47:52;101252.95;;;10.40;72.71
82668;BME280;72691;51.374;-0.176;2024-03-17T06:50:17;101248.62;;;10.28;74.10
82668;BME280;72691;51.374;-0.176;2024-03-17T06:52:43;101247.29;;;10.98;71.35
82668;BME280;72691;51.374;-0.176;2024-03-17T06:55:08;101250.72;;;10.39;72.45
82668;BME280;72691;51.374;-0.176;2024-03-17T06:57:34;101248.06;;;10.86;71.71
82668;BME280;72691;51.374;-0.176;2024-03-17T06:59:59;101246.15;;;11.08;71.60
82668;BME280;72691;51.374;-0.176;2024-03-17T07:02:24;101248.29;;;10.10;72.22
82668;BME280;72691;51.374;-0.176;2024-03-17T07:04:49;101243.38;;;9.90;73.46
82668;BME280;72691;51.374;-0.176;2024-03-17T07:07:15;101241.62;;;10.40;73.67
82668;BME280;72691;51.374;-0.176;2024-03-17T07:09:41;101236.11;;;10.98;70.91
82668;BME280;72691;51.374;-0.176;2024-03-17T07:12:06;101238.73;;;10.05;72.74
82668;BME280;72691;51.374;-0.176;2024-03-17T07:14:31;101235.72;;;10.74;72.80
82668;BME280;72691;51.374;-0.176;2024-03-17T07:16:56;101236.01;;;10.55;72.95
82668;BME280;72691;51.374;-0.176;2024-03-17T07:19:21;101233.35;;;10.04;74.19
82668;BME280;72691;51.374;-0.176;2024-03-17T07:21:46;101233.67;;;9.84;76.28
82668;BME280;72691;51.374;-0.176;2024-03-17T07:24:12;101230.37;;;9.88;75.68
82668;BME280;72691;51.374;-0.176;2024-03-17T07:26:38;101237.10;;;10.25;75.07
82668;BME280;72691;51.374;-0.176;2024-03-17T07:29:03;101237.72;;;10.23;74.40
82668;BME280;72691;51.374;-0.176;2024-03-17T07:31:28;101236.75;;;9.82;76.64
82668;BME280;72691;51.374;-0.176;2024-03-17T07:33:54;101230.23;;;10.26;76.20
82668;BME280;72691;51.374;-0.176;2024-03-17T07:36:19;101230.36;;;9.87;77.09
82668;BME280;72691;51.374;-0.176;2024-03-17T07:38:44;101232.38;;;10.75;74.33
82668;BME280;72691;51.374;-0.176;2024-03-17T07:41:10;101229.66;;;10.16;76.38
82668;BME280;72691;51.374;-0.176;2024-03-17T07:43:37;101228.67;;;9.87;77.53
82668;BME280;72691;51.374;-0.176;2024-03-17T07:46:03;101225.33;;;10.18;76.87
82668;BME280;72691;51.374;-0.176;2024-03-17T07:48:27;101220.66;;;10.48;74.55
82668;BME280;72691;51.374;-0.176;2024-03-17T07:50:54;101220.48;;;10.41;74.75
82668;BME280;72691;51.374;-0.176;2024-03-17T07:53:17;101216.78;;;11.01;74.86
82668;BME280;72691;51.374;-0.176;2024-03-17T07:55:42;101206.03;;;10.01;76.11
82668;BME280;72691;51.374;-0.176;2024-03-17T07:58:07;101201.75;;;9.87;76.56
82668;BME280;72691;51.374;-0.176;2024-03-17T08:00:33;101199.14;;;10.57;75.30
82668;BME280;72691;51.374;-0.176;2024-03-17T08:02:58;101197.17;;;9.52;78.42
82668;BME280;72691;51.374;-0.176;2024-03-17T08:05:24;101194.08;;;9.70;77.73
82668;BME280;72691;51.374;-0.176;2024-03-17T08:07:49;101188.86;;;10.89;75.21
82668;BME280;72691;51.374;-0.176;2024-03-17T08:10:15;101190.04;;;10.36;75.31
82668;BME280;72691;51.374;-0.176;2024-03-17T08:12:40;101185.89;;;10.00;77.69
82668;BME280;72691;51.374;-0.176;2024-03-17T08:15:06;101191.67;;;10.47;75.88
82668;BME280;72691;51.374;-0.176;2024-03-17T08:17:31;101188.84;;;10.17;76.58
82668;BME280;72691;51.374;-0.176;2024-03-17T08:19:56;101184.06;;;10.57;75.16
82668;BME280;72691;51.374;-0.176;2024-03-17T08:22:22;101181.26;;;11.48;72.70
82668;BME280;72691;51.374;-0.176;2024-03-17T08:24:47;101186.36;;;10.06;76.08
82668;BME280;72691;51.374;-0.176;2024-03-17T08:27:12;101181.44;;;10.07;77.51
82668;BME280;72691;51.374;-0.176;2024-03-17T08:29:38;101178.71;;;11.09;74.42
82668;BME280;72691;51.374;-0.176;2024-03-17T08:32:03;101182.72;;;10.49;75.98
82668;BME280;72691;51.374;-0.176;2024-03-17T08:34:28;101181.45;;;10.83;74.52
82668;BME280;72691;51.374;-0.176;2024-03-17T08:36:54;101181.05;;;10.46;76.24
82668;BME280;72691;51.374;-0.176;2024-03-17T08:39:19;101177.55;;;9.84;78.32
82668;BME280;72691;51.374;-0.176;2024-03-17T08:41:44;101177.98;;;10.32;75.60
82668;BME280;72691;51.374;-0.176;2024-03-17T08:44:10;101180.53;;;9.51;78.35
82668;BME280;72691;51.374;-0.176;2024-03-17T08:46:35;101179.93;;;10.56;77.26
82668;BME280;72691;51.374;-0.176;2024-03-17T08:49:00;101176.50;;;10.20;76.94
82668;BME280;72691;51.374;-0.176;2024-03-17T08:51:25;101173.32;;;9.89;77.81
82668;BME280;72691;51.374;-0.176;2024-03-17T08:53:51;101177.77;;;10.71;76.48
82668;BME280;72691;51.374;-0.176;2024-03-17T08:56:16;101176.25;;;10.28;77.97
82668;BME280;72691;51.374;-0.176;2024-03-17T08:58:41;101178.99;;;10.46;77.37
82668;BME280;72691;51.374;-0.176;2024-03-17T09:01:07;101175.58;;;9.68;78.63
82668;BME280;72691;51.374;-0.176;2024-03-17T09:03:33;101174.79;;;9.88;79.37
82668;BME280;72691;51.374;-0.176;2024-03-17T09:05:58;101173.35;;;10.16;77.56
82668;BME280;72691;51.374;-0.176;2024-03-17T09:08:24;101172.22;;;10.04;77.56
82668;BME280;72691;51.374;-0.176;2024-03-17T09:10:50;101168.15;;;10.26;78.61
82668;BME280;72691;51.374;-0.176;2024-03-17T09:13:15;101164.17;;;10.68;76.71
82668;BME280;72691;51.374;-0.176;2024-03-17T09:15:39;101165.67;;;9.70;79.84
82668;BME280;72691;51.374;-0.176;2024-03-17T09:18:04;101160.53;;;9.89;79.30
82668;BME280;72691;51.374;-0.176;2024-03-17T09:20:30;101161.98;;;10.19;79.17
82668;BME280;72691;51.374;-0.176;2024-03-17T09:22:55;101158.24;;;9.80;80.22
82668;BME280;72691;51.374;-0.176;2024-03-17T09:25:21;101153.70;;;9.72;80.37
82668;BME280;72691;51.374;-0.176;2024-03-17T09:27:46;101154.05;;;9.51;80.09
82668;BME280;72691;51.374;-0.176;2024-03-17T09:30:12;101156.66;;;9.74;80.11
82668;BME280;72691;51.374;-0.176;2024-03-17T09:32:37;101159.24;;;9.59;81.91
82668;BME280;72691;51.374;-0.176;2024-03-17T09:35:03;101158.53;;;9.54;82.10
82668;BME280;72691;51.374;-0.176;2024-03-17T09:37:28;101160.36;;;9.12;84.09
82668;BME280;72691;51.374;-0.176;2024-03-17T09:39:53;101158.56;;;9.94;81.64
82668;BME280;72691;51.374;-0.176;2024-03-17T09:42:20;101153.51;;;9.54;82.08
82668;BME280;72691;51.374;-0.176;2024-03-17T09:44:46;101158.57;;;8.81;83.87
82668;BME280;72691;51.374;-0.176;2024-03-17T09:47:16;101151.80;;;9.31;82.94
82668;BME280;72691;51.374;-0.176;2024-03-17T09:49:35;101149.23;;;9.59;81.97
82668;BME280;72691;51.374;-0.176;2024-03-17T09:52:02;101151.71;;;8.69;85.16
82668;BME280;72691;51.374;-0.176;2024-03-17T09:54:26;101145.33;;;9.07;84.13
82668;BME280;72691;51.374;-0.176;2024-03-17T09:56:51;101147.77;;;9.41;83.37
82668;BME280;72691;51.374;-0.176;2024-03-17T09:59:16;101145.40;;;9.16;83.25
82668;BME280;72691;51.374;-0.176;2024-03-17T10:01:42;101144.95;;;8.73;82.86
82668;BME280;72691;51.374;-0.176;2024-03-17T10:04:07;101139.92;;;8.88;83.53
82668;BME280;72691;51.374;-0.176;2024-03-17T10:06:33;101140.41;;;9.17;83.16
82668;BME280;72691;51.374;-0.176;2024-03-17T10:08:59;101135.09;;;9.39;82.49
82668;BME280;72691;51.374;-0.176;2024-03-17T10:11:25;101130.25;;;10.11;79.55
82668;BME280;72691;51.374;-0.176;2024-03-17T10:16:22;101130.41;;;10.52;79.00
82668;BME280;72691;51.374;-0.176;2024-03-17T10:18:40;101136.82;;;10.66;77.48
82668;BME280;72691;51.374;-0.176;2024-03-17T10:23:31;101133.16;;;10.39;80.30
82668;BME280;72691;51.374;-0.176;2024-03-17T10:25:56;101127.15;;;10.16;81.13
82668;BME280;72691;51.374;-0.176;2024-03-17T10:28:21;101121.95;;;10.00;82.07
82668;BME280;72691;51.374;-0.176;2024-03-17T10:30:57;101124.10;;;9.74;81.32
82668;BME280;72691;51.374;-0.176;2024-03-17T10:33:21;101115.03;;;10.12;81.64
82668;BME280;72691;51.374;-0.176;2024-03-17T10:35:38;101117.14;;;10.61;82.13
82668;BME280;72691;51.374;-0.176;2024-03-17T10:38:04;101116.97;;;10.33;81.21
82668;BME280;72691;51.374;-0.176;2024-03-17T10:40:30;101114.63;;;11.12;80.01
82668;BME280;72691;51.374;-0.176;2024-03-17T10:42:54;101108.59;;;11.21;78.85
82668;BME280;72691;51.374;-0.176;2024-03-17T10:45:19;101117.11;;;10.70;80.73
82668;BME280;72691;51.374;-0.176;2024-03-17T10:47:48;101119.06;;;10.81;80.22
82668;BME280;72691;51.374;-0.176;2024-03-17T10:50:17;101120.79;;;10.87;80.40
82668;BME280;72691;51.374;-0.176;2024-03-17T10:52:41;101112.47;;;10.65;79.93
82668;BME280;72691;51.374;-0.176;2024-03-17T10:55:07;101114.16;;;11.25;80.08
82668;BME280;72691;51.374;-0.176;2024-03-17T10:57:31;101110.46;;;10.96;78.13
82668;BME280;72691;51.374;-0.176;2024-03-17T10:59:53;101112.71;;;11.01;79.82
82668;BME280;72691;51.374;-0.176;2024-03-17T11:02:22;101103.20;;;11.24;77.23
82668;BME280;72691;51.374;-0.176;2024-03-17T11:04:42;101104.97;;;10.89;78.65
82668;BME280;72691;51.374;-0.176;2024-03-17T11:07:17;101108.27;;;10.85;77.65
82668;BME280;72691;51.374;-0.176;2024-03-17T11:09:33;101096.90;;;11.42;76.91
82668;BME280;72691;51.374;-0.176;2024-03-17T11:11:59;101105.79;;;10.87;78.37
82668;BME280;72691;51.374;-0.176;2024-03-17T11:14:24;101098.04;;;11.72;76.87
82668;BME280;72691;51.374;-0.176;2024-03-17T11:16:49;101096.73;;;12.60;73.80
82668;BME280;72691;51.374;-0.176;2024-03-17T11:19:16;101105.67;;;11.57;75.06
82668;BME280;72691;51.374;-0.176;2024-03-17T11:21:40;101113.23;;;10.85;77.38
82668;BME280;72691;51.374;-0.176;2024-03-17T11:24:06;101111.08;;;11.24;76.75
82668;BME280;72691;51.374;-0.176;2024-03-17T11:26:33;101112.15;;;11.25;77.42
82668;BME280;72691;51.374;-0.176;2024-03-17T11:28:56;101116.96;;;10.58;79.37
82668;BME280;72691;51.374;-0.176;2024-03-17T11:31:32;101111.63;;;10.41;80.15
82668;BME280;72691;51.374;-0.176;2024-03-17T11:33:47;101104.51;;;11.26;77.60
82668;BME280;72691;51.374;-0.176;2024-03-17T11:38:51;101112.08;;;11.29;76.47
82668;BME280;72691;51.374;-0.176;2024-03-17T11:43:29;101106.52;;;11.24;76.76
82668;BME280;72691;51.374;-0.176;2024-03-17T11:45:55;101109.33;;;10.81;77.49
82668;BME280;72691;51.374;-0.176;2024-03-17T11:48:19;101099.48;;;10.59;78.43
82668;BME280;72691;51.374;-0.176;2024-03-17T11:50:45;101096.10;;;10.70;77.87
82668;BME280;72691;51.374;-0.176;2024-03-17T11:53:11;101090.17;;;11.55;74.63
82668;BME280;72691;51.374;-0.176;2024-03-17T11:55:35;101095.12;;;11.31;76.06
82668;BME280;72691;51.374;-0.176;2024-03-17T11:58:01;101095.36;;;11.94;74.08
82668;BME280;72691;51.374;-0.176;2024-03-17T12:00:26;101095.37;;;11.68;74.26
82668;BME280;72691;51.374;-0.176;2024-03-17T12:02:52;101094.45;;;11.42;74.54
82668;BME280;72691;51.374;-0.176;2024-03-17T12:05:17;101099.86;;;10.86;78.68
82668;BME280;72691;51.374;-0.176;2024-03-17T12:07:43;101099.59;;;11.30;76.91
82668;BME280;72691;51.374;-0.176;2024-03-17T12:10:10;101095.42;;;11.76;75.70
82668;BME280;72691;51.374;-0.176;2024-03-17T12:12:33;101097.39;;;12.03;73.54
82668;BME280;72691;51.374;-0.176;2024-03-17T12:14:59;101095.24;;;11.96;73.46
82668;BME280;72691;51.374;-0.176;2024-03-17T12:17:25;101091.44;;;11.89;72.86
82668;BME280;72691;51.374;-0.176;2024-03-17T12:19:50;101087.95;;;11.84;72.98
82668;BME280;72691;51.374;-0.176;2024-03-17T12:22:17;101095.10;;;11.64;73.40
82668;BME280;72691;51.374;-0.176;2024-03-17T12:24:40;101093.80;;;11.55;72.85
82668;BME280;72691;51.374;-0.176;2024-03-17T12:27:06;101090.35;;;11.83;72.28
82668;BME280;72691;51.374;-0.176;2024-03-17T12:29:33;101088.91;;;11.01;73.54
82668;BME280;72691;51.374;-0.176;2024-03-17T12:31:57;101086.53;;;11.48;73.87
82668;BME280;72691;51.374;-0.176;2024-03-17T12:34:25;101083.45;;;11.84;72.86
82668;BME280;72691;51.374;-0.176;2024-03-17T12:36:48;101078.51;;;11.81;71.51
82668;BME280;72691;51.374;-0.176;2024-03-17T12:39:18;101076.15;;;11.85;72.42
82668;BME280;72691;51.374;-0.176;2024-03-17T12:41:38;101073.61;;;12.17;70.98
82668;BME280;72691;51.374;-0.176;2024-03-17T12:44:04;101068.14;;;12.04;71.29